sensor_id;sensor_type;location;lat;lon;timestamp;P1;durP1;ratioP1;P2;durP2;ratioP2
54123;SDS011;55741;53.252;5.788;2022-07-15T00:00:31;7.70;;;2.13;;
54123;SDS011;55741;53.252;5.788;2022-07-15T00:02:58;12.63;;;3.17;;
54123;SDS011;55741;53.252;5.788;2022-07-15T00:05:24;11.32;;;3.03;;
54123;SDS011;55741;53.252;5.788;2022-07-15T00:07:53;9.82;;;2.20;;
54123;SDS011;55741;53.252;5.788;2022-07-15T00:10:19;10.95;;;2.42;;
54123;SDS011;55741;53.252;5.788;2022-07-15T00:12:49;9.82;;;2.22;;
54123;SDS011;55741;53.252;5.788;2022-07-15T00:15:22;10.93;;;1.98;;
54123;SDS011;55741;53.252;5.788;2022-07-15T00:17:52;10.35;;;2.55;;
54123;SDS011;55741;53.252;5.788;2022-07-15T00:20:19;10.00;;;2.33;;
54123;SDS011;55741;53.252;5.788;2022-07-15T00:22:45;9.65;;;2.38;;
54123;SDS011;55741;53.252;5.788;2022-07-15T00:25:12;15.05;;;2.35;;
54123;SDS011;55741;53.252;5.788;2022-07-15T00:30:34;10.63;;;2.13;;
54123;SDS011;55741;53.252;5.788;2022-07-15T00:33:02;13.80;;;2.35;;
54123;SDS011;55741;53.252;5.788;2022-07-15T00:35:29;10.60;;;2.00;;
54123;SDS011;55741;53.252;5.788;2022-07-15T00:37:56;5.95;;;1.88;;
54123;SDS011;55741;53.252;5.788;2022-07-15T00:40:23;10.73;;;1.83;;
54123;SDS011;55741;53.252;5.788;2022-07-15T00:42:49;8.98;;;2.17;;
54123;SDS011;55741;53.252;5.788;2022-07-15T00:45:16;7.65;;;1.50;;
54123;SDS011;55741;53.252;5.788;2022-07-15T00:47:44;10.48;;;2.15;;
54123;SDS011;55741;53.252;5.788;2022-07-15T00:50:11;13.23;;;2.17;;
54123;SDS011;55741;53.252;5.788;2022-07-15T00:52:39;5.53;;;1.58;;
54123;SDS011;55741;53.252;5.788;2022-07-15T00:55:07;7.97;;;1.67;;
54123;SDS011;55741;53.252;5.788;2022-07-15T00:57:40;6.25;;;2.17;;
54123;SDS011;55741;53.252;5.788;2022-07-15T01:00:08;9.52;;;2.03;;
54123;SDS011;55741;53.252;5.788;2022-07-15T01:02:36;6.53;;;1.30;;
54123;SDS011;55741;53.252;5.788;2022-07-15T01:05:04;8.45;;;1.55;;
54123;SDS011;55741;53.252;5.788;2022-07-15T01:07:31;3.95;;;1.20;;
54123;SDS011;55741;53.252;5.788;2022-07-15T01:09:59;5.50;;;1.17;;
54123;SDS011;55741;53.252;5.788;2022-07-15T01:12:26;8.13;;;1.25;;
54123;SDS011;55741;53.252;5.788;2022-07-15T01:14:52;6.13;;;1.23;;
54123;SDS011;55741;53.252;5.788;2022-07-15T01:17:18;6.53;;;1.15;;
54123;SDS011;55741;53.252;5.788;2022-07-15T01:19:44;4.63;;;1.13;;
54123;SDS011;55741;53.252;5.788;2022-07-15T01:22:10;4.78;;;1.00;;
54123;SDS011;55741;53.252;5.788;2022-07-15T01:24:36;5.43;;;1.10;;
54123;SDS011;55741;53.252;5.788;2022-07-15T01:27:02;5.70;;;1.10;;
54123;SDS011;55741;53.252;5.788;2022-07-15T01:29:28;7.95;;;1.30;;
54123;SDS011;55741;53.252;5.788;2022-07-15T01:31:54;5.60;;;1.00;;
54123;SDS011;55741;53.252;5.788;2022-07-15T01:34:20;4.15;;;1.05;;
54123;SDS011;55741;53.252;5.788;2022-07-15T01:36:46;6.90;;;1.10;;
54123;SDS011;55741;53.252;5.788;2022-07-15T01:39:12;6.80;;;0.93;;
54123;SDS011;55741;53.252;5.788;2022-07-15T01:41:38;2.63;;;1.00;;
54123;SDS011;55741;53.252;5.788;2022-07-15T01:44:04;2.28;;;0.80;;
54123;SDS011;55741;53.252;5.788;2022-07-15T01:46:30;4.15;;;1.00;;
54123;SDS011;55741;53.252;5.788;2022-07-15T01:48:56;3.25;;;1.00;;
54123;SDS011;55741;53.252;5.788;2022-07-15T01:51:41;3.95;;;0.95;;
54123;SDS011;55741;53.252;5.788;2022-07-15T01:54:06;2.95;;;1.00;;
54123;SDS011;55741;53.252;5.788;2022-07-15T01:56:32;4.47;;;1.00;;
54123;SDS011;55741;53.252;5.788;2022-07-15T01:59:02;6.70;;;1.20;;
54123;SDS011;55741;53.252;5.788;2022-07-15T02:01:28;5.57;;;0.93;;
54123;SDS011;55741;53.252;5.788;2022-07-15T02:03:54;4.35;;;0.93;;
54123;SDS011;55741;53.252;5.788;2022-07-15T02:06:20;4.97;;;1.10;;
54123;SDS011;55741;53.252;5.788;2022-07-15T02:08:45;4.13;;;1.00;;
54123;SDS011;55741;53.252;5.788;2022-07-15T02:11:13;5.70;;;1.20;;
54123;SDS011;55741;53.252;5.788;2022-07-15T02:13:39;4.45;;;0.90;;
54123;SDS011;55741;53.252;5.788;2022-07-15T02:16:05;5.70;;;0.95;;
54123;SDS011;55741;53.252;5.788;2022-07-15T02:18:31;4.30;;;0.80;;
54123;SDS011;55741;53.252;5.788;2022-07-15T02:20:57;3.00;;;0.93;;
54123;SDS011;55741;53.252;5.788;2022-07-15T02:23:22;4.25;;;0.90;;
54123;SDS011;55741;53.252;5.788;2022-07-15T02:25:48;5.75;;;1.13;;
54123;SDS011;55741;53.252;5.788;2022-07-15T02:28:15;5.70;;;1.00;;
54123;SDS011;55741;53.252;5.788;2022-07-15T02:30:41;5.45;;;1.10;;
54123;SDS011;55741;53.252;5.788;2022-07-15T02:33:08;4.20;;;1.33;;
54123;SDS011;55741;53.252;5.788;2022-07-15T02:35:35;3.28;;;0.90;;
54123;SDS011;55741;53.252;5.788;2022-07-15T02:38:02;4.90;;;1.25;;
54123;SDS011;55741;53.252;5.788;2022-07-15T02:40:28;5.90;;;1.42;;
54123;SDS011;55741;53.252;5.788;2022-07-15T02:42:57;3.33;;;1.02;;
54123;SDS011;55741;53.252;5.788;2022-07-15T02:45:26;4.90;;;1.40;;
54123;SDS011;55741;53.252;5.788;2022-07-15T02:47:54;4.72;;;1.15;;
54123;SDS011;55741;53.252;5.788;2022-07-15T02:50:20;3.50;;;1.00;;
54123;SDS011;55741;53.252;5.788;2022-07-15T02:52:47;6.40;;;1.10;;
54123;SDS011;55741;53.252;5.788;2022-07-15T02:55:13;3.25;;;0.80;;
54123;SDS011;55741;53.252;5.788;2022-07-15T02:57:40;2.83;;;0.73;;
54123;SDS011;55741;53.252;5.788;2022-07-15T03:00:07;2.67;;;1.17;;
54123;SDS011;55741;53.252;5.788;2022-07-15T03:02:36;3.55;;;0.93;;
54123;SDS011;55741;53.252;5.788;2022-07-15T03:05:03;3.22;;;0.80;;
54123;SDS011;55741;53.252;5.788;2022-07-15T03:07:30;4.68;;;1.02;;
54123;SDS011;55741;53.252;5.788;2022-07-15T03:09:56;7.10;;;1.20;;
54123;SDS011;55741;53.252;5.788;2022-07-15T03:12:24;2.75;;;0.80;;
54123;SDS011;55741;53.252;5.788;2022-07-15T03:14:50;3.00;;;0.85;;
54123;SDS011;55741;53.252;5.788;2022-07-15T03:17:16;5.63;;;0.93;;
54123;SDS011;55741;53.252;5.788;2022-07-15T03:19:42;4.10;;;0.80;;
54123;SDS011;55741;53.252;5.788;2022-07-15T03:22:08;3.83;;;1.15;;
54123;SDS011;55741;53.252;5.788;2022-07-15T03:24:34;4.22;;;0.90;;
54123;SDS011;55741;53.252;5.788;2022-07-15T03:27:00;5.25;;;1.00;;
54123;SDS011;55741;53.252;5.788;2022-07-15T03:29:26;2.40;;;1.02;;
54123;SDS011;55741;53.252;5.788;2022-07-15T03:31:54;5.18;;;0.90;;
54123;SDS011;55741;53.252;5.788;2022-07-15T03:34:20;3.78;;;1.10;;
54123;SDS011;55741;53.252;5.788;2022-07-15T03:36:46;6.32;;;1.10;;
54123;SDS011;55741;53.252;5.788;2022-07-15T03:39:12;3.88;;;0.80;;
54123;SDS011;55741;53.252;5.788;2022-07-15T03:41:38;5.03;;;1.48;;
54123;SDS011;55741;53.252;5.788;2022-07-15T03:44:04;3.22;;;0.90;;
54123;SDS011;55741;53.252;5.788;2022-07-15T03:46:30;5.43;;;0.90;;
54123;SDS011;55741;53.252;5.788;2022-07-15T03:48:56;4.18;;;1.08;;
54123;SDS011;55741;53.252;5.788;2022-07-15T03:51:22;8.95;;;1.30;;
54123;SDS011;55741;53.252;5.788;2022-07-15T03:54:02;2.75;;;0.80;;
54123;SDS011;55741;53.252;5.788;2022-07-15T03:56:28;5.60;;;1.10;;
54123;SDS011;55741;53.252;5.788;2022-07-15T03:58:55;4.80;;;0.90;;
54123;SDS011;55741;53.252;5.788;2022-07-15T04:01:21;5.70;;;0.93;;
54123;SDS011;55741;53.252;5.788;2022-07-15T04:03:48;2.83;;;0.95;;
54123;SDS011;55741;53.252;5.788;2022-07-15T04:06:14;4.60;;;1.20;;
54123;SDS011;55741;53.252;5.788;2022-07-15T04:08:41;4.97;;;1.63;;
54123;SDS011;55741;53.252;5.788;2022-07-15T04:11:08;5.60;;;1.00;;
54123;SDS011;55741;53.252;5.788;2022-07-15T04:13:36;9.13;;;1.08;;
54123;SDS011;55741;53.252;5.788;2022-07-15T04:16:02;6.80;;;1.05;;
54123;SDS011;55741;53.252;5.788;2022-07-15T04:18:29;4.63;;;1.10;;
54123;SDS011;55741;53.252;5.788;2022-07-15T04:20:55;4.53;;;1.48;;
54123;SDS011;55741;53.252;5.788;2022-07-15T04:23:21;5.72;;;1.17;;
54123;SDS011;55741;53.252;5.788;2022-07-15T04:25:48;3.95;;;1.13;;
54123;SDS011;55741;53.252;5.788;2022-07-15T04:28:17;5.32;;;1.02;;
54123;SDS011;55741;53.252;5.788;2022-07-15T04:30:44;4.10;;;0.90;;
54123;SDS011;55741;53.252;5.788;2022-07-15T04:33:12;7.93;;;1.23;;
54123;SDS011;55741;53.252;5.788;2022-07-15T04:35:38;4.38;;;1.35;;
54123;SDS011;55741;53.252;5.788;2022-07-15T04:38:04;6.15;;;1.17;;
54123;SDS011;55741;53.252;5.788;2022-07-15T04:40:30;4.88;;;1.10;;
54123;SDS011;55741;53.252;5.788;2022-07-15T04:42:58;5.25;;;0.98;;
54123;SDS011;55741;53.252;5.788;2022-07-15T04:45:24;3.25;;;0.95;;
54123;SDS011;55741;53.252;5.788;2022-07-15T04:47:50;3.78;;;1.10;;
54123;SDS011;55741;53.252;5.788;2022-07-15T04:50:16;4.30;;;1.10;;
54123;SDS011;55741;53.252;5.788;2022-07-15T04:53:01;8.02;;;1.02;;
54123;SDS011;55741;53.252;5.788;2022-07-15T04:55:27;5.68;;;0.95;;
54123;SDS011;55741;53.252;5.788;2022-07-15T04:57:53;5.65;;;1.17;;
54123;SDS011;55741;53.252;5.788;2022-07-15T05:00:19;8.05;;;1.15;;
54123;SDS011;55741;53.252;5.788;2022-07-15T05:02:45;7.82;;;1.05;;
54123;SDS011;55741;53.252;5.788;2022-07-15T05:05:10;3.88;;;0.95;;
54123;SDS011;55741;53.252;5.788;2022-07-15T05:07:37;6.28;;;1.10;;
54123;SDS011;55741;53.252;5.788;2022-07-15T05:10:03;7.03;;;1.05;;
54123;SDS011;55741;53.252;5.788;2022-07-15T05:12:30;6.50;;;1.20;;
54123;SDS011;55741;53.252;5.788;2022-07-15T05:14:57;4.72;;;1.33;;
54123;SDS011;55741;53.252;5.788;2022-07-15T05:17:24;4.43;;;1.00;;
54123;SDS011;55741;53.252;5.788;2022-07-15T05:19:51;6.68;;;1.40;;
54123;SDS011;55741;53.252;5.788;2022-07-15T05:22:17;7.68;;;1.33;;
54123;SDS011;55741;53.252;5.788;2022-07-15T05:24:44;6.10;;;1.25;;
54123;SDS011;55741;53.252;5.788;2022-07-15T05:27:10;5.60;;;1.20;;
54123;SDS011;55741;53.252;5.788;2022-07-15T05:29:36;8.77;;;1.80;;
54123;SDS011;55741;53.252;5.788;2022-07-15T05:32:02;3.85;;;1.20;;
54123;SDS011;55741;53.252;5.788;2022-07-15T05:34:28;5.30;;;1.10;;
54123;SDS011;55741;53.252;5.788;2022-07-15T05:36:54;3.13;;;1.20;;
54123;SDS011;55741;53.252;5.788;2022-07-15T05:39:20;4.10;;;1.15;;
54123;SDS011;55741;53.252;5.788;2022-07-15T05:41:46;6.13;;;1.38;;
54123;SDS011;55741;53.252;5.788;2022-07-15T05:44:12;3.85;;;1.65;;
54123;SDS011;55741;53.252;5.788;2022-07-15T05:46:38;5.88;;;1.05;;
54123;SDS011;55741;53.252;5.788;2022-07-15T05:49:03;6.47;;;1.42;;
54123;SDS011;55741;53.252;5.788;2022-07-15T05:51:30;8.60;;;1.38;;
54123;SDS011;55741;53.252;5.788;2022-07-15T05:53:56;4.90;;;1.00;;
54123;SDS011;55741;53.252;5.788;2022-07-15T05:56:22;6.75;;;1.20;;
54123;SDS011;55741;53.252;5.788;2022-07-15T05:58:48;4.15;;;1.15;;
54123;SDS011;55741;53.252;5.788;2022-07-15T06:01:14;3.72;;;0.98;;
54123;SDS011;55741;53.252;5.788;2022-07-15T06:03:40;5.00;;;1.13;;
54123;SDS011;55741;53.252;5.788;2022-07-15T06:06:05;5.50;;;1.23;;
54123;SDS011;55741;53.252;5.788;2022-07-15T06:08:33;5.38;;;1.10;;
54123;SDS011;55741;53.252;5.788;2022-07-15T06:11:00;2.55;;;0.95;;
54123;SDS011;55741;53.252;5.788;2022-07-15T06:13:26;3.25;;;1.17;;
54123;SDS011;55741;53.252;5.788;2022-07-15T06:15:54;11.88;;;2.35;;
54123;SDS011;55741;53.252;5.788;2022-07-15T06:18:20;4.25;;;1.15;;
54123;SDS011;55741;53.252;5.788;2022-07-15T06:20:47;4.10;;;1.33;;
54123;SDS011;55741;53.252;5.788;2022-07-15T06:23:13;5.90;;;1.23;;
54123;SDS011;55741;53.252;5.788;2022-07-15T06:25:39;3.25;;;1.05;;
54123;SDS011;55741;53.252;5.788;2022-07-15T06:28:05;5.78;;;1.00;;
54123;SDS011;55741;53.252;5.788;2022-07-15T06:30:32;6.57;;;1.25;;
54123;SDS011;55741;53.252;5.788;2022-07-15T06:32:58;2.85;;;0.90;;
54123;SDS011;55741;53.252;5.788;2022-07-15T06:35:24;4.72;;;1.20;;
54123;SDS011;55741;53.252;5.788;2022-07-15T06:37:50;4.35;;;1.58;;
54123;SDS011;55741;53.252;5.788;2022-07-15T06:40:17;8.75;;;1.48;;
54123;SDS011;55741;53.252;5.788;2022-07-15T06:42:43;5.50;;;1.33;;
54123;SDS011;55741;53.252;5.788;2022-07-15T06:45:09;2.92;;;0.88;;
54123;SDS011;55741;53.252;5.788;2022-07-15T06:47:35;3.97;;;0.90;;
54123;SDS011;55741;53.252;5.788;2022-07-15T06:50:05;2.88;;;0.90;;
54123;SDS011;55741;53.252;5.788;2022-07-15T06:52:31;2.63;;;0.90;;
54123;SDS011;55741;53.252;5.788;2022-07-15T06:54:57;4.32;;;1.00;;
54123;SDS011;55741;53.252;5.788;2022-07-15T06:57:23;3.33;;;0.88;;
54123;SDS011;55741;53.252;5.788;2022-07-15T06:59:49;7.28;;;1.67;;
54123;SDS011;55741;53.252;5.788;2022-07-15T07:02:14;3.03;;;0.82;;
54123;SDS011;55741;53.252;5.788;2022-07-15T07:04:41;4.00;;;0.90;;
54123;SDS011;55741;53.252;5.788;2022-07-15T07:07:10;2.05;;;0.95;;
54123;SDS011;55741;53.252;5.788;2022-07-15T07:09:36;4.20;;;1.27;;
54123;SDS011;55741;53.252;5.788;2022-07-15T07:12:02;2.78;;;0.95;;
54123;SDS011;55741;53.252;5.788;2022-07-15T07:14:28;3.25;;;0.85;;
54123;SDS011;55741;53.252;5.788;2022-07-15T07:16:56;5.72;;;1.23;;
54123;SDS011;55741;53.252;5.788;2022-07-15T07:19:21;3.97;;;0.98;;
54123;SDS011;55741;53.252;5.788;2022-07-15T07:21:47;6.72;;;1.30;;
54123;SDS011;55741;53.252;5.788;2022-07-15T07:24:13;2.40;;;1.05;;
54123;SDS011;55741;53.252;5.788;2022-07-15T07:26:40;5.20;;;1.08;;
54123;SDS011;55741;53.252;5.788;2022-07-15T07:29:06;3.17;;;1.10;;
54123;SDS011;55741;53.252;5.788;2022-07-15T07:31:32;4.93;;;1.08;;
54123;SDS011;55741;53.252;5.788;2022-07-15T07:33:58;4.20;;;1.17;;
54123;SDS011;55741;53.252;5.788;2022-07-15T07:36:24;4.35;;;1.00;;
54123;SDS011;55741;53.252;5.788;2022-07-15T07:38:51;7.07;;;1.42;;
54123;SDS011;55741;53.252;5.788;2022-07-15T07:41:18;4.60;;;1.17;;
54123;SDS011;55741;53.252;5.788;2022-07-15T07:43:44;8.40;;;1.00;;
54123;SDS011;55741;53.252;5.788;2022-07-15T07:46:10;5.28;;;1.02;;
54123;SDS011;55741;53.252;5.788;2022-07-15T07:48:38;4.55;;;1.02;;
54123;SDS011;55741;53.252;5.788;2022-07-15T07:51:04;4.20;;;1.20;;
54123;SDS011;55741;53.252;5.788;2022-07-15T07:53:30;3.53;;;0.98;;
54123;SDS011;55741;53.252;5.788;2022-07-15T07:55:56;4.22;;;1.10;;
54123;SDS011;55741;53.252;5.788;2022-07-15T07:58:22;7.60;;;1.00;;
54123;SDS011;55741;53.252;5.788;2022-07-15T08:00:49;3.03;;;0.80;;
54123;SDS011;55741;53.252;5.788;2022-07-15T08:03:16;3.88;;;1.20;;
54123;SDS011;55741;53.252;5.788;2022-07-15T08:05:43;3.90;;;1.10;;
54123;SDS011;55741;53.252;5.788;2022-07-15T08:08:13;3.85;;;0.90;;
54123;SDS011;55741;53.252;5.788;2022-07-15T08:10:47;5.68;;;1.23;;
54123;SDS011;55741;53.252;5.788;2022-07-15T08:13:15;2.67;;;0.83;;
54123;SDS011;55741;53.252;5.788;2022-07-15T08:15:42;4.88;;;1.02;;
54123;SDS011;55741;53.252;5.788;2022-07-15T08:18:10;3.78;;;1.10;;
54123;SDS011;55741;53.252;5.788;2022-07-15T08:20:36;3.72;;;1.00;;
54123;SDS011;55741;53.252;5.788;2022-07-15T08:23:02;1.52;;;0.73;;
54123;SDS011;55741;53.252;5.788;2022-07-15T08:25:29;6.72;;;1.20;;
54123;SDS011;55741;53.252;5.788;2022-07-15T08:27:56;5.18;;;1.05;;
54123;SDS011;55741;53.252;5.788;2022-07-15T08:30:24;4.35;;;1.10;;
54123;SDS011;55741;53.252;5.788;2022-07-15T08:32:51;4.82;;;0.88;;
54123;SDS011;55741;53.252;5.788;2022-07-15T08:35:16;3.53;;;1.02;;
54123;SDS011;55741;53.252;5.788;2022-07-15T08:37:42;3.40;;;0.82;;
54123;SDS011;55741;53.252;5.788;2022-07-15T08:40:09;3.53;;;1.27;;
54123;SDS011;55741;53.252;5.788;2022-07-15T08:42:37;4.80;;;1.20;;
54123;SDS011;55741;53.252;5.788;2022-07-15T08:45:09;4.80;;;1.10;;
54123;SDS011;55741;53.252;5.788;2022-07-15T08:47:40;4.35;;;1.15;;
54123;SDS011;55741;53.252;5.788;2022-07-15T08:50:09;2.38;;;0.82;;
54123;SDS011;55741;53.252;5.788;2022-07-15T08:52:36;4.10;;;0.88;;
54123;SDS011;55741;53.252;5.788;2022-07-15T08:55:05;2.83;;;0.90;;
54123;SDS011;55741;53.252;5.788;2022-07-15T08:57:32;4.15;;;0.85;;
54123;SDS011;55741;53.252;5.788;2022-07-15T08:59:59;2.80;;;0.90;;
54123;SDS011;55741;53.252;5.788;2022-07-15T09:02:24;4.18;;;1.13;;
54123;SDS011;55741;53.252;5.788;2022-07-15T09:10:19;2.65;;;1.02;;
54123;SDS011;55741;53.252;5.788;2022-07-15T09:12:49;4.78;;;1.00;;
54123;SDS011;55741;53.252;5.788;2022-07-15T09:18:17;2.83;;;1.00;;
54123;SDS011;55741;53.252;5.788;2022-07-15T09:20:45;1.60;;;0.80;;
54123;SDS011;55741;53.252;5.788;2022-07-15T09:23:13;5.10;;;1.02;;
54123;SDS011;55741;53.252;5.788;2022-07-15T09:25:46;6.30;;;1.05;;
54123;SDS011;55741;53.252;5.788;2022-07-15T09:28:14;2.72;;;1.00;;
54123;SDS011;55741;53.252;5.788;2022-07-15T09:30:41;4.10;;;1.05;;
54123;SDS011;55741;53.252;5.788;2022-07-15T09:33:28;2.45;;;0.88;;
54123;SDS011;55741;53.252;5.788;2022-07-15T09:36:02;3.35;;;1.08;;
54123;SDS011;55741;53.252;5.788;2022-07-15T09:41:01;3.20;;;1.20;;
54123;SDS011;55741;53.252;5.788;2022-07-15T09:43:28;3.10;;;1.00;;
54123;SDS011;55741;53.252;5.788;2022-07-15T09:46:00;2.30;;;1.00;;
54123;SDS011;55741;53.252;5.788;2022-07-15T09:48:27;2.70;;;0.90;;
54123;SDS011;55741;53.252;5.788;2022-07-15T09:51:00;2.95;;;1.00;;
54123;SDS011;55741;53.252;5.788;2022-07-15T09:53:26;8.52;;;1.10;;
54123;SDS011;55741;53.252;5.788;2022-07-15T09:55:53;2.40;;;0.90;;
54123;SDS011;55741;53.252;5.788;2022-07-15T09:58:19;3.75;;;1.30;;
54123;SDS011;55741;53.252;5.788;2022-07-15T10:00:46;4.53;;;0.80;;
54123;SDS011;55741;53.252;5.788;2022-07-15T10:03:12;3.13;;;1.30;;
54123;SDS011;55741;53.252;5.788;2022-07-15T10:05:38;2.20;;;0.90;;
54123;SDS011;55741;53.252;5.788;2022-07-15T10:08:09;5.05;;;1.35;;
54123;SDS011;55741;53.252;5.788;2022-07-15T10:10:36;4.88;;;1.50;;
54123;SDS011;55741;53.252;5.788;2022-07-15T10:18:30;3.13;;;1.10;;
54123;SDS011;55741;53.252;5.788;2022-07-15T10:21:08;3.63;;;1.10;;
54123;SDS011;55741;53.252;5.788;2022-07-15T10:23:58;3.95;;;1.27;;
54123;SDS011;55741;53.252;5.788;2022-07-15T10:29:18;6.05;;;1.40;;
54123;SDS011;55741;53.252;5.788;2022-07-15T10:31:44;6.30;;;1.23;;
54123;SDS011;55741;53.252;5.788;2022-07-15T10:34:20;3.88;;;1.25;;
54123;SDS011;55741;53.252;5.788;2022-07-15T10:39:16;2.47;;;1.00;;
54123;SDS011;55741;53.252;5.788;2022-07-15T10:41:53;5.82;;;1.30;;
54123;SDS011;55741;53.252;5.788;2022-07-15T10:44:33;4.38;;;1.15;;
54123;SDS011;55741;53.252;5.788;2022-07-15T10:49:39;5.05;;;1.20;;
54123;SDS011;55741;53.252;5.788;2022-07-15T10:52:14;5.82;;;1.30;;
54123;SDS011;55741;53.252;5.788;2022-07-15T10:54:44;5.90;;;1.30;;
54123;SDS011;55741;53.252;5.788;2022-07-15T11:03:04;5.00;;;1.55;;
54123;SDS011;55741;53.252;5.788;2022-07-15T11:05:30;5.55;;;1.42;;
54123;SDS011;55741;53.252;5.788;2022-07-15T11:07:57;3.05;;;1.30;;
54123;SDS011;55741;53.252;5.788;2022-07-15T11:10:23;7.65;;;1.83;;
54123;SDS011;55741;53.252;5.788;2022-07-15T11:15:19;3.20;;;1.35;;
54123;SDS011;55741;53.252;5.788;2022-07-15T11:17:50;6.07;;;1.65;;
54123;SDS011;55741;53.252;5.788;2022-07-15T11:20:21;3.45;;;1.33;;
54123;SDS011;55741;53.252;5.788;2022-07-15T11:22:52;3.17;;;1.40;;
54123;SDS011;55741;53.252;5.788;2022-07-15T11:25:33;4.18;;;1.50;;
54123;SDS011;55741;53.252;5.788;2022-07-15T11:28:03;4.68;;;1.30;;
54123;SDS011;55741;53.252;5.788;2022-07-15T11:30:34;4.22;;;1.50;;
54123;SDS011;55741;53.252;5.788;2022-07-15T11:33:03;6.88;;;1.80;;
54123;SDS011;55741;53.252;5.788;2022-07-15T11:35:42;5.35;;;1.50;;
54123;SDS011;55741;53.252;5.788;2022-07-15T11:38:22;3.90;;;1.27;;
54123;SDS011;55741;53.252;5.788;2022-07-15T11:40:54;4.97;;;1.55;;
54123;SDS011;55741;53.252;5.788;2022-07-15T11:43:40;4.18;;;1.50;;
54123;SDS011;55741;53.252;5.788;2022-07-15T11:46:25;5.53;;;1.38;;
54123;SDS011;55741;53.252;5.788;2022-07-15T11:48:59;5.38;;;1.33;;
54123;SDS011;55741;53.252;5.788;2022-07-15T11:51:26;5.65;;;1.70;;
54123;SDS011;55741;53.252;5.788;2022-07-15T11:53:54;6.10;;;1.67;;
54123;SDS011;55741;53.252;5.788;2022-07-15T11:56:21;6.63;;;1.50;;
54123;SDS011;55741;53.252;5.788;2022-07-15T11:58:51;5.43;;;1.58;;
54123;SDS011;55741;53.252;5.788;2022-07-15T12:01:26;7.07;;;1.98;;
54123;SDS011;55741;53.252;5.788;2022-07-15T12:03:54;6.45;;;1.50;;
54123;SDS011;55741;53.252;5.788;2022-07-15T12:06:22;3.63;;;1.58;;
54123;SDS011;55741;53.252;5.788;2022-07-15T12:08:55;4.00;;;1.40;;
54123;SDS011;55741;53.252;5.788;2022-07-15T12:11:24;5.13;;;1.60;;
54123;SDS011;55741;53.252;5.788;2022-07-15T12:22:13;6.70;;;2.15;;
54123;SDS011;55741;53.252;5.788;2022-07-15T12:27:07;5.22;;;1.45;;
54123;SDS011;55741;53.252;5.788;2022-07-15T12:29:33;6.50;;;1.48;;
54123;SDS011;55741;53.252;5.788;2022-07-15T12:32:02;5.07;;;1.50;;
54123;SDS011;55741;53.252;5.788;2022-07-15T12:37:17;5.80;;;1.55;;
54123;SDS011;55741;53.252;5.788;2022-07-15T12:39:59;3.42;;;1.20;;
54123;SDS011;55741;53.252;5.788;2022-07-15T12:42:37;6.60;;;1.50;;
54123;SDS011;55741;53.252;5.788;2022-07-15T12:45:06;3.75;;;1.40;;
54123;SDS011;55741;53.252;5.788;2022-07-15T12:48:00;6.38;;;1.63;;
54123;SDS011;55741;53.252;5.788;2022-07-15T12:53:11;2.40;;;1.23;;
54123;SDS011;55741;53.252;5.788;2022-07-15T12:55:41;5.20;;;1.65;;
54123;SDS011;55741;53.252;5.788;2022-07-15T12:58:13;5.50;;;1.40;;
54123;SDS011;55741;53.252;5.788;2022-07-15T13:00:42;4.28;;;1.50;;
54123;SDS011;55741;53.252;5.788;2022-07-15T13:03:10;5.93;;;1.42;;
54123;SDS011;55741;53.252;5.788;2022-07-15T13:05:45;3.28;;;1.42;;
54123;SDS011;55741;53.252;5.788;2022-07-15T13:08:13;5.22;;;1.67;;
54123;SDS011;55741;53.252;5.788;2022-07-15T13:10:41;6.80;;;1.70;;
54123;SDS011;55741;53.252;5.788;2022-07-15T13:13:11;6.00;;;2.25;;
54123;SDS011;55741;53.252;5.788;2022-07-15T13:15:39;3.72;;;1.48;;
54123;SDS011;55741;53.252;5.788;2022-07-15T13:18:05;6.43;;;2.05;;
54123;SDS011;55741;53.252;5.788;2022-07-15T13:20:32;8.15;;;1.70;;
54123;SDS011;55741;53.252;5.788;2022-07-15T13:22:58;7.70;;;1.90;;
54123;SDS011;55741;53.252;5.788;2022-07-15T13:25:26;6.38;;;2.03;;
54123;SDS011;55741;53.252;5.788;2022-07-15T13:27:53;6.32;;;1.88;;
54123;SDS011;55741;53.252;5.788;2022-07-15T13:30:19;5.72;;;1.70;;
54123;SDS011;55741;53.252;5.788;2022-07-15T13:32:47;7.75;;;2.30;;
54123;SDS011;55741;53.252;5.788;2022-07-15T13:35:14;4.40;;;1.73;;
54123;SDS011;55741;53.252;5.788;2022-07-15T13:37:40;8.48;;;1.85;;
54123;SDS011;55741;53.252;5.788;2022-07-15T13:40:07;11.77;;;2.78;;
54123;SDS011;55741;53.252;5.788;2022-07-15T13:42:35;6.47;;;2.00;;
54123;SDS011;55741;53.252;5.788;2022-07-15T13:45:01;6.28;;;1.63;;
54123;SDS011;55741;53.252;5.788;2022-07-15T13:47:27;3.40;;;1.50;;
54123;SDS011;55741;53.252;5.788;2022-07-15T13:49:55;6.30;;;1.73;;
54123;SDS011;55741;53.252;5.788;2022-07-15T13:52:43;6.78;;;1.73;;
54123;SDS011;55741;53.252;5.788;2022-07-15T13:55:14;6.07;;;1.77;;
54123;SDS011;55741;53.252;5.788;2022-07-15T13:57:41;4.30;;;1.60;;
54123;SDS011;55741;53.252;5.788;2022-07-15T14:00:09;6.80;;;1.90;;
54123;SDS011;55741;53.252;5.788;2022-07-15T14:02:37;6.28;;;2.00;;
54123;SDS011;55741;53.252;5.788;2022-07-15T14:05:03;7.45;;;2.00;;
54123;SDS011;55741;53.252;5.788;2022-07-15T14:07:31;8.63;;;3.08;;
54123;SDS011;55741;53.252;5.788;2022-07-15T14:09:57;4.88;;;1.70;;
54123;SDS011;55741;53.252;5.788;2022-07-15T14:12:23;5.00;;;1.75;;
54123;SDS011;55741;53.252;5.788;2022-07-15T14:14:50;6.35;;;2.20;;
54123;SDS011;55741;53.252;5.788;2022-07-15T14:17:16;6.55;;;2.30;;
54123;SDS011;55741;53.252;5.788;2022-07-15T14:19:41;7.30;;;1.55;;
54123;SDS011;55741;53.252;5.788;2022-07-15T14:22:07;5.60;;;1.88;;
54123;SDS011;55741;53.252;5.788;2022-07-15T14:24:34;7.28;;;1.88;;
54123;SDS011;55741;53.252;5.788;2022-07-15T14:27:02;5.97;;;1.60;;
54123;SDS011;55741;53.252;5.788;2022-07-15T14:29:28;5.95;;;1.90;;
54123;SDS011;55741;53.252;5.788;2022-07-15T14:31:55;4.60;;;1.73;;
54123;SDS011;55741;53.252;5.788;2022-07-15T14:34:21;5.32;;;1.65;;
54123;SDS011;55741;53.252;5.788;2022-07-15T14:36:47;5.43;;;1.90;;
54123;SDS011;55741;53.252;5.788;2022-07-15T14:39:13;9.75;;;2.10;;
54123;SDS011;55741;53.252;5.788;2022-07-15T14:41:39;7.50;;;1.95;;
54123;SDS011;55741;53.252;5.788;2022-07-15T14:44:05;8.02;;;1.60;;
54123;SDS011;55741;53.252;5.788;2022-07-15T14:46:31;7.05;;;1.58;;
54123;SDS011;55741;53.252;5.788;2022-07-15T14:48:57;4.72;;;1.70;;
54123;SDS011;55741;53.252;5.788;2022-07-15T14:51:23;7.05;;;1.98;;
54123;SDS011;55741;53.252;5.788;2022-07-15T14:53:49;4.35;;;1.58;;
54123;SDS011;55741;53.252;5.788;2022-07-15T14:56:15;8.45;;;2.47;;
54123;SDS011;55741;53.252;5.788;2022-07-15T14:58:41;5.45;;;2.05;;
54123;SDS011;55741;53.252;5.788;2022-07-15T15:01:07;11.52;;;2.83;;
54123;SDS011;55741;53.252;5.788;2022-07-15T15:03:32;5.35;;;1.75;;
54123;SDS011;55741;53.252;5.788;2022-07-15T15:05:58;6.72;;;2.63;;
54123;SDS011;55741;53.252;5.788;2022-07-15T15:08:25;6.40;;;2.65;;
54123;SDS011;55741;53.252;5.788;2022-07-15T15:10:51;8.60;;;3.22;;
54123;SDS011;55741;53.252;5.788;2022-07-15T15:13:17;9.10;;;3.47;;
54123;SDS011;55741;53.252;5.788;2022-07-15T15:15:43;9.65;;;3.53;;
54123;SDS011;55741;53.252;5.788;2022-07-15T15:18:09;7.97;;;3.20;;
54123;SDS011;55741;53.252;5.788;2022-07-15T15:20:35;6.65;;;3.13;;
54123;SDS011;55741;53.252;5.788;2022-07-15T15:23:01;10.57;;;3.20;;
54123;SDS011;55741;53.252;5.788;2022-07-15T15:25:27;9.38;;;2.92;;
54123;SDS011;55741;53.252;5.788;2022-07-15T15:28:13;6.70;;;2.60;;
54123;SDS011;55741;53.252;5.788;2022-07-15T15:30:39;5.80;;;2.00;;
54123;SDS011;55741;53.252;5.788;2022-07-15T15:33:05;7.22;;;2.42;;
54123;SDS011;55741;53.252;5.788;2022-07-15T15:35:31;7.80;;;2.30;;
54123;SDS011;55741;53.252;5.788;2022-07-15T15:37:57;4.40;;;1.85;;
54123;SDS011;55741;53.252;5.788;2022-07-15T15:40:23;9.45;;;2.45;;
54123;SDS011;55741;53.252;5.788;2022-07-15T15:42:49;9.18;;;2.05;;